Time;durP1;ratioP1;P1;durP2;ratioP2;P2;SDS_P1;SDS_P2;PMS_P1;PMS_P2;Temp;Humidity;BMP_temperature;BMP_pressure;BME280_temperature;BME280_humidity;BME280_pressure;Samples;Min_cycle;Max_cycle;Signal;HPM_P1;HPM_P2
2022/10/02 00:00:10;;;;;;;;;;;10.80;98.40;;;;;;6118331;23;19917;-78
2022/10/02 00:02:41;;;;;;;;;;;10.80;98.70;;;;;;6117615;23;19923;-78
2022/10/02 00:05:11;;;;;;;;;;;10.60;99.90;;;;;;6096905;23;20433;-78
2022/10/02 00:07:44;;;;;;;;;;;10.70;99.90;;;;;;6119381;23;20353;-78
2022/10/02 00:10:15;;;;;;;;;;;10.70;99.80;;;;;;6120188;23;19999;-80
2022/10/02 00:12:43;;;;;;;;;;;10.70;99.40;;;;;;6119102;23;19996;-79
2022/10/02 00:15:14;;;;;;;;;;;10.70;99.20;;;;;;6120238;23;19988;-79
2022/10/02 00:17:43;;;;;;;;;;;10.70;99.00;;;;;;6119825;23;19993;-78
2022/10/02 00:20:11;;;;;;;;;;;10.70;98.80;;;;;;6120209;23;19924;-78
2022/10/02 00:22:38;;;;;;;;;;;10.70;98.80;;;;;;6119477;23;19962;-79
2022/10/02 00:25:20;;;;;;;;;;;10.70;99.40;;;;;;6097175;23;19917;-78
2022/10/02 00:27:58;;;;;;;;;;;10.60;99.90;;;;;;6119488;23;19917;-79
2022/10/02 00:30:27;;;;;;;;;;;10.70;99.90;;;;;;6119768;23;19952;-78
2022/10/02 00:33:02;;;;;;;;;;;10.70;99.90;;;;;;6119698;23;19952;-79
2022/10/02 00:36:02;;;;;;;;;;;10.70;99.80;;;;;;6120033;23;19937;-78
2022/10/02 00:38:35;;;;;;;;;;;10.70;99.80;;;;;;6080106;23;19917;-79
2022/10/02 00:41:20;;;;;;;;;;;10.70;99.40;;;;;;6120091;23;19992;-78
2022/10/02 00:44:06;;;;;;;;;;;10.60;99.90;;;;;;6119349;23;19988;-79
2022/10/02 00:46:35;;;;;;;;;;;10.50;99.90;;;;;;6119182;23;20335;-78
2022/10/02 00:49:14;;;;;;;;;;;10.50;99.90;;;;;;6119935;23;20327;-78
2022/10/02 00:51:51;;;;;;;;;;;10.30;99.90;;;;;;6119485;23;19988;-79
2022/10/02 00:54:17;;;;;;;;;;;10.30;99.90;;;;;;6119392;23;20246;-79
2022/10/02 00:57:07;;;;;;;;;;;10.30;99.90;;;;;;6096209;23;20239;-78
2022/10/02 00:59:40;;;;;;;;;;;10.30;99.90;;;;;;6087036;23;19956;-79
2022/10/02 01:02:10;;;;;;;;;;;10.30;99.90;;;;;;6119923;23;20282;-79
2022/10/02 01:04:38;;;;;;;;;;;10.30;99.90;;;;;;6118628;23;19941;-79
2022/10/02 01:07:06;;;;;;;;;;;10.20;99.90;;;;;;6120062;23;19940;-79
2022/10/02 01:09:33;;;;;;;;;;;10.20;99.90;;;;;;6096250;23;19944;-78
2022/10/02 01:12:00;;;;;;;;;;;10.20;99.90;;;;;;6119696;23;20016;-79
2022/10/02 01:14:33;;;;;;;;;;;10.20;99.90;;;;;;6118772;23;19921;-78
2022/10/02 01:17:01;;;;;;;;;;;10.00;99.90;;;;;;6119395;23;19917;-77
2022/10/02 01:19:31;;;;;;;;;;;10.00;99.90;;;;;;6118906;23;20352;-79
2022/10/02 01:22:03;;;;;;;;;;;10.10;99.90;;;;;;6095114;23;19932;-78
2022/10/02 01:24:42;;;;;;;;;;;10.10;99.90;;;;;;6118605;23;19932;-79
2022/10/02 01:27:09;;;;;;;;;;;10.20;99.90;;;;;;6119622;23;19925;-79
2022/10/02 01:29:36;;;;;;;;;;;10.20;99.90;;;;;;6118917;23;19927;-79
2022/10/02 01:32:03;;;;;;;;;;;10.20;99.90;;;;;;6096811;23;19941;-78
2022/10/02 01:34:30;;;;;;;;;;;10.20;99.90;;;;;;6118846;23;19917;-80
2022/10/02 01:36:57;;;;;;;;;;;10.20;99.90;;;;;;6119479;23;19925;-78
2022/10/02 01:39:25;;;;;;;;;;;10.20;99.90;;;;;;6094388;23;19917;-79
2022/10/02 01:41:54;;;;;;;;;;;10.20;99.90;;;;;;6118899;23;19994;-78
2022/10/02 01:44:21;;;;;;;;;;;10.20;99.90;;;;;;6119477;23;19917;-78
2022/10/02 01:46:48;;;;;;;;;;;10.10;99.90;;;;;;6118838;23;20228;-78
2022/10/02 01:49:26;;;;;;;;;;;10.00;99.90;;;;;;6119609;23;19993;-78
2022/10/02 01:51:52;;;;;;;;;;;10.00;99.90;;;;;;6118861;23;19996;-78
2022/10/02 01:54:28;;;;;;;;;;;10.00;99.90;;;;;;6118295;23;20000;-78
2022/10/02 01:56:58;;;;;;;;;;;10.00;99.90;;;;;;6118570;23;19941;-78
2022/10/02 01:59:43;;;;;;;;;;;10.00;99.90;;;;;;6119534;23;19984;-79
2022/10/02 02:02:10;;;;;;;;;;;10.10;99.90;;;;;;6119491;23;19917;-78
2022/10/02 02:05:15;;;;;;;;;;;10.10;99.90;;;;;;6119085;23;19917;-78
2022/10/02 02:07:57;;;;;;;;;;;10.20;99.90;;;;;;6040727;23;20369;-79
2022/10/02 02:10:37;;;;;;;;;;;10.00;99.90;;;;;;6064691;23;19917;-79
2022/10/02 02:13:13;;;;;;;;;;;10.00;99.90;;;;;;6084351;23;20334;-81
2022/10/02 02:15:39;;;;;;;;;;;10.00;99.90;;;;;;6118545;23;20054;-78
2022/10/02 02:18:29;;;;;;;;;;;10.00;99.90;;;;;;6118671;23;19921;-79
2022/10/02 02:21:01;;;;;;;;;;;10.00;99.90;;;;;;6083038;23;19931;-79
2022/10/02 02:23:31;;;;;;;;;;;10.00;99.90;;;;;;6094687;23;19930;-78
2022/10/02 02:26:02;;;;;;;;;;;10.00;99.90;;;;;;6095450;23;19944;-78
2022/10/02 02:28:30;;;;;;;;;;;10.00;99.90;;;;;;6118353;23;20262;-78
2022/10/02 02:30:57;;;;;;;;;;;10.00;99.90;;;;;;6118213;23;20361;-78
2022/10/02 02:33:26;;;;;;;;;;;9.90;99.90;;;;;;6118207;23;19917;-78
2022/10/02 02:35:55;;;;;;;;;;;10.00;99.90;;;;;;6118362;23;19992;-79
2022/10/02 02:38:26;;;;;;;;;;;9.90;99.90;;;;;;6132691;23;19961;-79
2022/10/02 02:40:55;;;;;;;;;;;9.90;99.90;;;;;;6131683;23;19936;-80
2022/10/02 02:43:45;;;;;;;;;;;9.90;99.90;;;;;;6133922;23;19917;-79
2022/10/02 02:46:24;;;;;;;;;;;9.90;99.90;;;;;;6096453;23;19992;-79
2022/10/02 02:48:54;;;;;;;;;;;10.00;99.90;;;;;;6132470;23;19917;-79
2022/10/02 02:51:22;;;;;;;;;;;10.00;99.90;;;;;;6139820;23;19933;-79
2022/10/02 02:54:02;;;;;;;;;;;10.00;99.90;;;;;;6127340;23;19921;-79
2022/10/02 02:56:31;;;;;;;;;;;9.90;99.90;;;;;;6135481;23;19933;-79
2022/10/02 02:59:03;;;;;;;;;;;9.70;99.90;;;;;;6137066;23;19913;-79
2022/10/02 03:01:30;;;;;;;;;;;9.70;99.90;;;;;;6134873;23;19957;-79
2022/10/02 03:03:57;;;;;;;;;;;9.70;99.90;;;;;;6131769;23;19921;-79
2022/10/02 03:06:37;;;;;;;;;;;9.60;99.90;;;;;;6113316;23;19957;-79
2022/10/02 03:09:06;;;;;;;;;;;9.60;99.90;;;;;;6112263;23;19924;-79
2022/10/02 03:11:52;;;;;;;;;;;9.60;99.90;;;;;;6137696;23;19921;-79
2022/10/02 03:14:19;;;;;;;;;;;9.60;99.90;;;;;;6136295;23;19921;-79
2022/10/02 03:16:54;;;;;;;;;;;9.60;99.90;;;;;;6134533;23;19944;-79
2022/10/02 03:19:32;;;;;;;;;;;9.50;99.90;;;;;;6112357;23;19936;-79
2022/10/02 03:21:59;;;;;;;;;;;9.50;99.90;;;;;;6109699;23;19956;-79
2022/10/02 03:24:40;;;;;;;;;;;9.50;99.90;;;;;;6114880;23;19927;-79
2022/10/02 03:27:09;;;;;;;;;;;9.50;99.90;;;;;;6136715;23;19949;-79
2022/10/02 03:29:46;;;;;;;;;;;9.50;99.90;;;;;;6136517;23;19936;-79
2022/10/02 03:32:14;;;;;;;;;;;9.50;99.90;;;;;;6116464;23;19932;-79
2022/10/02 03:34:40;;;;;;;;;;;9.50;99.90;;;;;;6138482;23;20242;-80
2022/10/02 03:37:07;;;;;;;;;;;9.50;99.90;;;;;;6113389;23;19917;-80
2022/10/02 03:39:38;;;;;;;;;;;9.50;99.90;;;;;;6137878;23;19947;-80
2022/10/02 03:42:05;;;;;;;;;;;9.50;99.90;;;;;;6139180;23;19943;-79
2022/10/02 03:44:31;;;;;;;;;;;9.60;99.90;;;;;;6137741;23;19952;-79
2022/10/02 03:46:58;;;;;;;;;;;9.50;99.90;;;;;;6135575;23;19924;-79
2022/10/02 03:49:25;;;;;;;;;;;9.50;99.90;;;;;;6133944;23;19971;-79
2022/10/02 03:51:51;;;;;;;;;;;9.40;99.90;;;;;;6136095;23;19940;-80
2022/10/02 03:54:19;;;;;;;;;;;9.40;99.90;;;;;;6111054;23;19932;-79
2022/10/02 03:56:53;;;;;;;;;;;9.40;99.90;;;;;;6135501;23;19917;-79
2022/10/02 03:59:32;;;;;;;;;;;9.50;99.90;;;;;;6133613;23;19928;-79
2022/10/02 04:02:00;;;;;;;;;;;9.50;99.90;;;;;;6110989;23;20325;-79
2022/10/02 04:04:30;;;;;;;;;;;9.50;99.90;;;;;;6135879;23;19917;-79
2022/10/02 04:07:05;;;;;;;;;;;9.30;99.90;;;;;;6135709;23;19958;-79
2022/10/02 04:09:47;;;;;;;;;;;9.20;99.90;;;;;;6138283;23;19921;-79
2022/10/02 04:12:18;;;;;;;;;;;9.20;99.90;;;;;;6137559;23;19917;-79
2022/10/02 04:14:52;;;;;;;;;;;9.20;99.90;;;;;;6139572;23;19933;-79
2022/10/02 04:17:25;;;;;;;;;;;9.20;99.90;;;;;;6136791;23;19917;-79
2022/10/02 04:19:54;;;;;;;;;;;9.20;99.90;;;;;;6137720;23;19928;-80
2022/10/02 04:22:30;;;;;;;;;;;9.20;99.90;;;;;;6115386;23;19921;-80
2022/10/02 04:25:30;;;;;;;;;;;9.20;99.90;;;;;;6138611;23;19937;-79
2022/10/02 04:27:56;;;;;;;;;;;9.20;99.90;;;;;;6080742;23;20283;-79
2022/10/02 04:30:23;;;;;;;;;;;9.10;99.90;;;;;;6135995;23;19917;-80
2022/10/02 04:32:50;;;;;;;;;;;9.00;99.90;;;;;;6114758;23;19916;-79
2022/10/02 04:35:36;;;;;;;;;;;9.00;99.90;;;;;;6138009;23;19949;-80
2022/10/02 04:38:21;;;;;;;;;;;9.00;99.90;;;;;;6138650;23;19961;-79
2022/10/02 04:40:59;;;;;;;;;;;8.90;99.90;;;;;;6139432;23;19917;-79
2022/10/02 04:43:44;;;;;;;;;;;8.90;99.90;;;;;;6139384;23;19945;-79
2022/10/02 04:46:14;;;;;;;;;;;9.00;99.90;;;;;;6137956;23;19980;-80
2022/10/02 04:48:53;;;;;;;;;;;9.00;99.90;;;;;;6138532;23;19925;-79
2022/10/02 04:51:26;;;;;;;;;;;9.00;99.90;;;;;;6137640;23;19925;-79
2022/10/02 04:54:05;;;;;;;;;;;9.00;99.90;;;;;;6138531;23;19921;-80
2022/10/02 04:56:50;;;;;;;;;;;9.00;99.90;;;;;;6116275;23;20315;-79
2022/10/02 04:59:26;;;;;;;;;;;9.00;99.90;;;;;;6138063;23;19925;-79
2022/10/02 05:02:13;;;;;;;;;;;9.00;99.90;;;;;;6138129;23;19924;-79
2022/10/02 05:04:40;;;;;;;;;;;9.00;99.90;;;;;;6069858;23;19908;-79
2022/10/02 05:07:10;;;;;;;;;;;9.00;99.90;;;;;;6138764;23;19917;-79
2022/10/02 05:09:52;;;;;;;;;;;9.00;99.90;;;;;;6137765;23;19965;-79
2022/10/02 05:12:21;;;;;;;;;;;9.00;99.90;;;;;;6135156;23;19917;-79
2022/10/02 05:15:03;;;;;;;;;;;8.90;99.90;;;;;;6134975;23;19933;-79
2022/10/02 05:17:33;;;;;;;;;;;8.90;99.90;;;;;;6136006;23;19927;-79
2022/10/02 05:20:12;;;;;;;;;;;8.90;99.90;;;;;;6136850;23;20009;-79
2022/10/02 05:22:39;;;;;;;;;;;8.80;99.90;;;;;;6112084;23;19933;-79
2022/10/02 05:25:08;;;;;;;;;;;8.80;99.90;;;;;;6113701;23;19936;-79
2022/10/02 05:27:50;;;;;;;;;;;8.80;99.90;;;;;;6134928;23;19962;-79
2022/10/02 05:30:17;;;;;;;;;;;8.80;99.90;;;;;;6138795;23;19925;-79
2022/10/02 05:32:44;;;;;;;;;;;8.80;99.90;;;;;;6112510;23;19925;-79
2022/10/02 05:35:18;;;;;;;;;;;8.80;99.90;;;;;;6138728;23;19921;-79
2022/10/02 05:37:47;;;;;;;;;;;8.80;99.90;;;;;;6138097;23;19917;-78
2022/10/02 05:40:32;;;;;;;;;;;8.80;99.90;;;;;;6112659;23;19925;-80
2022/10/02 05:43:02;;;;;;;;;;;8.90;99.90;;;;;;6138464;23;19989;-79
2022/10/02 05:45:29;;;;;;;;;;;8.90;99.90;;;;;;6138111;23;19957;-79
2022/10/02 05:48:16;;;;;;;;;;;9.00;99.90;;;;;;6116406;23;19932;-79
2022/10/02 05:50:45;;;;;;;;;;;8.80;99.90;;;;;;6114041;23;19920;-79
2022/10/02 05:53:30;;;;;;;;;;;8.70;99.90;;;;;;6135946;23;19996;-79
2022/10/02 05:56:03;;;;;;;;;;;8.70;99.90;;;;;;6135733;23;19956;-79
2022/10/02 05:58:57;;;;;;;;;;;8.70;99.90;;;;;;6137793;23;19929;-79
2022/10/02 06:01:29;;;;;;;;;;;8.80;99.90;;;;;;6108854;23;19924;-79
2022/10/02 06:03:55;;;;;;;;;;;8.80;99.90;;;;;;6137912;23;19917;-79
2022/10/02 06:06:22;;;;;;;;;;;8.90;99.90;;;;;;6136576;23;19965;-79
2022/10/02 06:08:57;;;;;;;;;;;8.80;99.90;;;;;;6140441;23;19917;-79
2022/10/02 06:11:29;;;;;;;;;;;8.90;99.90;;;;;;6137464;23;19924;-79
2022/10/02 06:14:01;;;;;;;;;;;8.90;99.90;;;;;;6136754;23;19945;-78
2022/10/02 06:16:51;;;;;;;;;;;9.00;99.90;;;;;;6109473;23;19941;-78
2022/10/02 06:19:17;;;;;;;;;;;9.10;99.90;;;;;;6102968;23;19921;-79
2022/10/02 06:22:04;;;;;;;;;;;9.20;99.90;;;;;;6137413;23;19992;-79
2022/10/02 06:24:37;;;;;;;;;;;9.20;99.90;;;;;;6133561;23;19929;-79
2022/10/02 06:27:10;;;;;;;;;;;9.30;99.90;;;;;;6107448;23;20254;-78
2022/10/02 06:29:46;;;;;;;;;;;9.40;99.90;;;;;;6132214;23;20254;-78
2022/10/02 06:32:22;;;;;;;;;;;9.40;99.90;;;;;;6134976;23;19989;-78
2022/10/02 06:34:49;;;;;;;;;;;9.50;99.90;;;;;;6135933;23;19917;-79
2022/10/02 06:37:34;;;;;;;;;;;9.60;99.90;;;;;;6135729;23;19917;-79
2022/10/02 06:40:04;;;;;;;;;;;9.60;99.90;;;;;;6137554;23;20461;-79
2022/10/02 06:42:34;;;;;;;;;;;9.70;99.90;;;;;;6112442;23;19925;-79
2022/10/02 06:45:20;;;;;;;;;;;9.80;99.90;;;;;;6136517;23;19918;-79
2022/10/02 06:48:04;;;;;;;;;;;9.90;99.90;;;;;;6135847;23;19956;-79
2022/10/02 06:50:31;;;;;;;;;;;9.90;99.90;;;;;;6133129;23;19917;-78
2022/10/02 06:53:17;;;;;;;;;;;10.20;99.90;;;;;;6127994;23;19966;-78
2022/10/02 06:55:43;;;;;;;;;;;10.20;99.90;;;;;;6130209;23;19923;-78
2022/10/02 06:58:13;;;;;;;;;;;10.30;99.90;;;;;;6131859;23;19917;-79
2022/10/02 07:00:47;;;;;;;;;;;10.40;99.90;;;;;;6130314;23;20224;-79
2022/10/02 07:03:18;;;;;;;;;;;10.50;99.90;;;;;;6133005;23;19964;-79
2022/10/02 07:05:56;;;;;;;;;;;10.70;99.90;;;;;;6131437;23;19937;-79
2022/10/02 07:08:26;;;;;;;;;;;10.90;99.90;;;;;;6132793;23;19989;-79
2022/10/02 07:11:02;;;;;;;;;;;11.10;99.90;;;;;;6135783;23;19957;-79
2022/10/02 07:13:29;;;;;;;;;;;11.20;99.90;;;;;;6133326;23;19940;-79
2022/10/02 07:16:15;;;;;;;;;;;11.50;99.90;;;;;;6132063;23;19924;-78
2022/10/02 07:18:54;;;;;;;;;;;11.80;99.90;;;;;;6077729;23;19921;-79
2022/10/02 07:21:21;;;;;;;;;;;12.00;99.90;;;;;;6137574;23;19937;-79
2022/10/02 07:23:57;;;;;;;;;;;12.20;99.90;;;;;;6136986;23;19917;-79
2022/10/02 07:26:34;;;;;;;;;;;12.40;99.90;;;;;;6134201;23;19913;-79
2022/10/02 07:29:14;;;;;;;;;;;12.60;99.90;;;;;;6137157;23;19936;-79
2022/10/02 07:31:46;;;;;;;;;;;12.80;99.90;;;;;;6133239;23;19941;-78
2022/10/02 07:34:24;;;;;;;;;;;13.10;99.90;;;;;;6132637;23;20306;-79
2022/10/02 07:36:57;;;;;;;;;;;13.40;99.90;;;;;;6106402;23;19918;-79
2022/10/02 07:39:30;;;;;;;;;;;13.60;99.90;;;;;;6130612;23;19921;-79
2022/10/02 07:42:15;;;;;;;;;;;13.80;99.80;;;;;;6129295;23;19926;-79
2022/10/02 07:45:00;;;;;;;;;;;14.00;99.90;;;;;;6130734;23;19952;-79
2022/10/02 07:47:43;;;;;;;;;;;14.10;99.10;;;;;;6131930;23;20040;-79
2022/10/02 07:50:10;;;;;;;;;;;14.30;99.60;;;;;;6127057;23;19917;-79
2022/10/02 07:52:36;;;;;;;;;;;14.30;98.50;;;;;;6133408;23;19957;-79
2022/10/02 07:55:22;;;;;;;;;;;14.50;98.70;;;;;;6135416;23;20258;-79
2022/10/02 07:57:55;;;;;;;;;;;14.70;98.80;;;;;;6131823;23;19923;-79
2022/10/02 08:00:23;;;;;;;;;;;15.00;97.70;;;;;;6135861;23;20342;-79
2022/10/02 08:02:58;;;;;;;;;;;15.30;95.40;;;;;;6137088;23;20239;-79
2022/10/02 08:05:37;;;;;;;;;;;15.40;95.70;;;;;;6140246;23;19917;-79
2022/10/02 08:08:22;;;;;;;;;;;15.60;95.00;;;;;;6114542;23;19924;-79
2022/10/02 08:10:54;;;;;;;;;;;15.80;94.30;;;;;;6133359;23;19921;-79
2022/10/02 08:13:24;;;;;;;;;;;16.10;93.20;;;;;;6138729;23;19940;-79
2022/10/02 08:15:53;;;;;;;;;;;16.40;92.20;;;;;;6138012;23;19917;-80
2022/10/02 08:18:26;;;;;;;;;;;16.70;90.30;;;;;;6109720;23;19933;-79
2022/10/02 08:21:01;;;;;;;;;;;16.80;89.30;;;;;;6134678;23;19909;-79
2022/10/02 08:23:38;;;;;;;;;;;17.00;89.60;;;;;;6113834;23;19908;-79
2022/10/02 08:26:17;;;;;;;;;;;17.20;87.70;;;;;;6136216;23;19932;-79
2022/10/02 08:29:07;;;;;;;;;;;17.40;84.10;;;;;;6139214;23;19924;-79
2022/10/02 08:31:33;;;;;;;;;;;17.60;84.40;;;;;;6109732;23;19928;-79
2022/10/02 08:34:05;;;;;;;;;;;17.70;83.70;;;;;;6135769;23;19952;-79
2022/10/02 08:36:50;;;;;;;;;;;17.90;84.30;;;;;;6137418;23;19921;-79
2022/10/02 08:39:36;;;;;;;;;;;18.00;81.90;;;;;;6134840;23;19918;-80
2022/10/02 08:42:05;;;;;;;;;;;18.10;82.90;;;;;;6133147;23;19969;-79
2022/10/02 08:44:32;;;;;;;;;;;18.20;79.60;;;;;;6129446;23;20243;-79
2022/10/02 08:47:27;;;;;;;;;;;18.50;79.00;;;;;;6133273;23;19926;-79
2022/10/02 08:50:13;;;;;;;;;;;18.60;76.40;;;;;;6114443;23;20231;-79
2022/10/02 08:52:43;;;;;;;;;;;18.70;75.60;;;;;;6135864;23;20227;-79
2022/10/02 08:55:28;;;;;;;;;;;18.80;75.00;;;;;;6137533;23;20250;-79
2022/10/02 08:57:58;;;;;;;;;;;19.00;74.90;;;;;;6137012;23;19924;-79
2022/10/02 09:00:37;;;;;;;;;;;19.00;75.10;;;;;;6138807;23;19908;-80
2022/10/02 09:03:23;;;;;;;;;;;19.00;73.90;;;;;;6137478;23;19924;-79
2022/10/02 09:05:59;;;;;;;;;;;19.20;75.20;;;;;;6137795;23;19933;-80
2022/10/02 09:08:32;;;;;;;;;;;19.20;74.70;;;;;;6138359;23;19944;-80
2022/10/02 09:11:19;;;;;;;;;;;19.30;75.50;;;;;;6137314;23;19917;-80
2022/10/02 09:13:55;;;;;;;;;;;19.30;72.60;;;;;;6106772;23;19917;-80
2022/10/02 09:16:38;;;;;;;;;;;19.20;72.00;;;;;;6138207;23;20343;-80
2022/10/02 09:19:20;;;;;;;;;;;19.30;74.10;;;;;;6136733;23;19956;-80
2022/10/02 09:21:47;;;;;;;;;;;19.50;72.80;;;;;;6137324;23;19921;-80
2022/10/02 09:24:13;;;;;;;;;;;19.50;70.00;;;;;;6139071;23;19909;-80
2022/10/02 09:26:46;;;;;;;;;;;19.30;70.80;;;;;;6137683;23;19924;-80
2022/10/02 09:29:13;;;;;;;;;;;19.50;72.40;;;;;;6136885;23;20000;-80
2022/10/02 09:32:01;;;;;;;;;;;19.70;72.00;;;;;;6138959;23;19924;-80
2022/10/02 09:34:47;;;;;;;;;;;19.90;70.50;;;;;;6136881;23;19961;-80
2022/10/02 09:37:15;;;;;;;;;;;20.00;70.00;;;;;;6133473;23;20290;-80
2022/10/02 09:40:00;;;;;;;;;;;19.90;69.30;;;;;;6137330;23;20302;-80
2022/10/02 09:42:45;;;;;;;;;;;20.00;67.70;;;;;;6137572;23;19941;-80
2022/10/02 09:45:21;;;;;;;;;;;20.10;69.10;;;;;;6137331;23;20357;-80
2022/10/02 09:48:04;;;;;;;;;;;20.30;65.50;;;;;;6137713;23;19901;-80
2022/10/02 09:50:49;;;;;;;;;;;20.40;65.30;;;;;;6136636;23;19941;-80
2022/10/02 09:53:22;;;;;;;;;;;20.60;64.40;;;;;;6139013;23;19925;-80
2022/10/02 09:56:19;;;;;;;;;;;20.70;64.20;;;;;;6126510;23;19921;-80
2022/10/02 09:59:12;;;;;;;;;;;20.80;64.20;;;;;;6136768;23;19961;-80
2022/10/02 10:01:39;;;;;;;;;;;21.00;62.70;;;;;;6138326;23;19924;-81
2022/10/02 10:04:27;;;;;;;;;;;21.10;61.60;;;;;;6136669;23;19921;-80
2022/10/02 10:07:32;;;;;;;;;;;21.00;62.20;;;;;;6136497;23;19925;-80
2022/10/02 10:10:18;;;;;;;;;;;21.20;63.00;;;;;;6116402;23;19917;-81
2022/10/02 10:12:54;;;;;;;;;;;21.20;61.70;;;;;;6137247;23;20278;-80
2022/10/02 10:15:39;;;;;;;;;;;21.40;63.00;;;;;;6138657;23;19929;-81
2022/10/02 10:18:16;;;;;;;;;;;21.30;60.90;;;;;;6138804;23;19980;-81
2022/10/02 10:21:09;;;;;;;;;;;21.30;60.70;;;;;;6123035;23;19921;-80
2022/10/02 10:23:49;;;;;;;;;;;21.40;61.70;;;;;;6131422;23;19917;-80
2022/10/02 10:26:26;;;;;;;;;;;21.20;61.40;;;;;;6132874;23;19925;-80
2022/10/02 10:29:11;;;;;;;;;;;21.40;62.10;;;;;;6127474;23;20257;-79
2022/10/02 10:31:50;;;;;;;;;;;21.60;60.90;;;;;;6133044;23;19945;-78
2022/10/02 10:34:20;;;;;;;;;;;21.70;60.00;;;;;;6135484;23;19921;-80
2022/10/02 10:39:47;;;;;;;;;;;21.90;59.50;;;;;;6113751;23;19960;-79
2022/10/02 10:42:33;;;;;;;;;;;21.40;61.20;;;;;;6100744;23;19924;-80
2022/10/02 10:45:22;;;;;;;;;;;21.60;61.60;;;;;;6119559;23;19965;-79
2022/10/02 10:48:01;;;;;;;;;;;21.60;61.80;;;;;;6122685;23;19917;-78
2022/10/02 10:50:34;;;;;;;;;;;21.80;60.40;;;;;;6121200;23;19917;-79
2022/10/02 10:53:10;;;;;;;;;;;22.00;61.00;;;;;;6123897;23;19921;-79
2022/10/02 10:55:42;;;;;;;;;;;22.00;60.60;;;;;;6120494;23;19928;-80
2022/10/02 10:58:32;;;;;;;;;;;22.30;61.20;;;;;;6096780;23;20299;-80
2022/10/02 11:01:12;;;;;;;;;;;22.20;60.00;;;;;;6087938;23;19917;-79
2022/10/02 11:03:49;;;;;;;;;;;22.20;60.20;;;;;;6123612;23;19917;-79
2022/10/02 11:06:35;;;;;;;;;;;22.50;61.10;;;;;;6121905;23;19917;-80
2022/10/02 11:09:16;;;;;;;;;;;22.50;59.50;;;;;;6121328;23;20016;-79
2022/10/02 11:11:49;;;;;;;;;;;22.70;60.50;;;;;;6098920;23;20000;-79
2022/10/02 11:14:25;;;;;;;;;;;22.90;59.20;;;;;;6128070;23;20061;-79
2022/10/02 11:16:56;;;;;;;;;;;22.70;59.70;;;;;;6098857;23;19917;-79
2022/10/02 11:19:29;;;;;;;;;;;22.80;59.40;;;;;;6122112;23;19917;-79
2022/10/02 11:22:08;;;;;;;;;;;22.90;60.60;;;;;;6121429;23;19917;-79
2022/10/02 11:24:59;;;;;;;;;;;22.90;59.40;;;;;;6098224;23;19917;-80
2022/10/02 11:27:35;;;;;;;;;;;22.90;59.40;;;;;;6122431;23;19928;-79
2022/10/02 11:30:04;;;;;;;;;;;23.20;58.60;;;;;;6122203;23;19991;-80
2022/10/02 11:32:50;;;;;;;;;;;23.20;58.20;;;;;;6122735;23;20360;-79
2022/10/02 11:35:35;;;;;;;;;;;23.40;60.10;;;;;;6102210;23;20298;-79
2022/10/02 11:38:14;;;;;;;;;;;23.70;58.90;;;;;;6125110;23;19921;-79
2022/10/02 11:40:47;;;;;;;;;;;23.70;57.50;;;;;;6101115;23;19917;-79
2022/10/02 11:43:26;;;;;;;;;;;23.80;58.60;;;;;;6125634;23;19952;-79
2022/10/02 11:45:54;;;;;;;;;;;23.50;58.50;;;;;;6125069;23;19917;-79
2022/10/02 11:48:21;;;;;;;;;;;23.30;60.00;;;;;;6124293;23;19918;-80
2022/10/02 11:50:50;;;;;;;;;;;23.50;59.50;;;;;;6124121;23;20283;-80
2022/10/02 11:53:36;;;;;;;;;;;23.70;58.90;;;;;;6122201;23;19928;-80
2022/10/02 11:56:02;;;;;;;;;;;23.90;58.30;;;;;;6106737;23;19917;-80
2022/10/02 11:58:55;;;;;;;;;;;24.00;57.50;;;;;;6128318;23;19917;-79
2022/10/02 12:01:44;;;;;;;;;;;24.20;57.50;;;;;;6063265;23;19972;-80
2022/10/02 12:04:17;;;;;;;;;;;24.30;56.70;;;;;;6114518;23;20345;-80
2022/10/02 12:06:52;;;;;;;;;;;23.90;56.60;;;;;;6144154;23;19917;-80
2022/10/02 12:09:18;;;;;;;;;;;23.80;56.70;;;;;;6141488;23;19932;-80
2022/10/02 12:12:05;;;;;;;;;;;23.80;58.10;;;;;;6141525;23;19917;-80
2022/10/02 12:14:37;;;;;;;;;;;24.00;57.60;;;;;;6139712;23;19996;-80
2022/10/02 12:17:16;;;;;;;;;;;24.20;55.50;;;;;;6144519;23;19924;-80
2022/10/02 12:28:54;;;;;;;;;;;24.20;56.00;;;;;;6117180;23;19917;-80
2022/10/02 12:31:27;;;;;;;;;;;24.60;55.30;;;;;;6109805;23;19928;-80
2022/10/02 12:34:13;;;;;;;;;;;24.70;54.70;;;;;;6145251;23;19917;-80
2022/10/02 12:36:40;;;;;;;;;;;24.70;54.20;;;;;;6141322;23;19925;-80
2022/10/02 12:39:11;;;;;;;;;;;24.90;53.80;;;;;;6141078;23;19968;-80
2022/10/02 12:42:02;;;;;;;;;;;24.80;54.00;;;;;;6119848;23;19901;-80
2022/10/02 12:44:50;;;;;;;;;;;24.90;53.40;;;;;;6131260;23;19921;-80
2022/10/02 12:47:27;;;;;;;;;;;24.90;54.50;;;;;;6140697;23;19901;-80
2022/10/02 12:50:06;;;;;;;;;;;25.10;55.00;;;;;;6143747;23;19917;-80
2022/10/02 12:52:39;;;;;;;;;;;25.20;53.60;;;;;;6140259;23;19917;-80
2022/10/02 12:55:09;;;;;;;;;;;25.40;53.00;;;;;;6140119;23;19995;-79
2022/10/02 12:57:52;;;;;;;;;;;25.50;51.90;;;;;;6135316;23;19924;-80
2022/10/02 13:00:20;;;;;;;;;;;25.50;51.60;;;;;;6128902;23;19917;-80
2022/10/02 13:03:04;;;;;;;;;;;25.30;50.80;;;;;;6114946;23;19908;-80
2022/10/02 13:05:31;;;;;;;;;;;25.40;52.10;;;;;;6141473;23;19917;-80
2022/10/02 13:08:10;;;;;;;;;;;25.70;52.20;;;;;;6135637;23;20246;-80
2022/10/02 13:10:37;;;;;;;;;;;25.20;52.10;;;;;;6137616;23;19925;-80
2022/10/02 13:13:16;;;;;;;;;;;25.00;52.70;;;;;;6137792;23;19921;-81
2022/10/02 13:15:53;;;;;;;;;;;25.10;51.40;;;;;;6137562;23;19941;-80
2022/10/02 13:18:42;;;;;;;;;;;25.40;52.20;;;;;;6136305;23;19920;-81
2022/10/02 13:21:24;;;;;;;;;;;25.80;51.80;;;;;;6115137;23;19917;-80
2022/10/02 13:24:00;;;;;;;;;;;26.20;50.30;;;;;;6134857;23;19947;-80
2022/10/02 13:26:48;;;;;;;;;;;25.50;50.40;;;;;;6137339;23;19917;-78
2022/10/02 13:29:18;;;;;;;;;;;25.40;51.00;;;;;;6138106;23;19901;-81
2022/10/02 13:31:45;;;;;;;;;;;25.20;52.40;;;;;;6117017;23;19940;-81
2022/10/02 13:34:50;;;;;;;;;;;25.50;51.90;;;;;;6136711;23;19932;-81
2022/10/02 13:37:21;;;;;;;;;;;25.60;50.60;;;;;;6056030;23;19926;-80
2022/10/02 13:39:57;;;;;;;;;;;25.90;50.10;;;;;;6035262;23;19925;-80
2022/10/02 13:42:42;;;;;;;;;;;25.80;49.60;;;;;;6092664;23;19983;-81
2022/10/02 13:45:33;;;;;;;;;;;25.10;51.60;;;;;;6140075;23;19912;-81
2022/10/02 13:48:21;;;;;;;;;;;25.20;52.30;;;;;;6141788;23;19925;-81
2022/10/02 13:51:01;;;;;;;;;;;25.10;51.90;;;;;;6140869;23;19941;-81
2022/10/02 13:53:36;;;;;;;;;;;25.20;52.60;;;;;;6143072;23;19925;-81
2022/10/02 13:56:19;;;;;;;;;;;25.40;51.50;;;;;;6144383;23;19937;-81
2022/10/02 13:59:09;;;;;;;;;;;25.20;51.10;;;;;;6143068;23;19908;-81
2022/10/02 14:01:48;;;;;;;;;;;24.90;52.40;;;;;;6135888;23;19924;-81
2022/10/02 14:04:30;;;;;;;;;;;25.20;52.30;;;;;;6122605;23;19952;-80
2022/10/02 14:07:23;;;;;;;;;;;25.20;51.30;;;;;;6139852;23;19921;-81
2022/10/02 14:09:50;;;;;;;;;;;25.30;50.70;;;;;;6077219;23;19917;-81
2022/10/02 14:12:28;;;;;;;;;;;25.50;50.80;;;;;;6102804;23;20227;-81
2022/10/02 14:15:03;;;;;;;;;;;25.60;51.10;;;;;;6122628;23;19917;-80
2022/10/02 14:17:30;;;;;;;;;;;25.50;51.40;;;;;;6122068;23;19967;-81
2022/10/02 14:20:16;;;;;;;;;;;25.60;50.60;;;;;;6101887;23;19921;-81
2022/10/02 14:22:53;;;;;;;;;;;25.50;50.40;;;;;;6123549;23;19933;-81
2022/10/02 14:25:35;;;;;;;;;;;25.20;51.30;;;;;;6123111;23;19917;-81
2022/10/02 14:28:17;;;;;;;;;;;25.30;51.20;;;;;;6121857;23;20327;-81
2022/10/02 14:31:03;;;;;;;;;;;25.40;51.50;;;;;;6122069;23;19917;-81
2022/10/02 14:33:49;;;;;;;;;;;25.40;50.20;;;;;;6123114;23;19944;-81
2022/10/02 14:36:36;;;;;;;;;;;25.40;49.80;;;;;;6100080;23;19917;-81
2022/10/02 14:39:06;;;;;;;;;;;25.30;50.10;;;;;;6123972;23;19929;-81
2022/10/02 14:41:33;;;;;;;;;;;25.20;50.60;;;;;;6123896;23;19918;-81
2022/10/02 14:44:09;;;;;;;;;;;25.00;50.30;;;;;;6123097;23;19924;-81
2022/10/02 14:46:36;;;;;;;;;;;24.90;51.40;;;;;;6124814;23;19917;-81
2022/10/02 14:49:06;;;;;;;;;;;24.90;51.70;;;;;;6122523;23;20359;-81
2022/10/02 14:51:52;;;;;;;;;;;24.90;51.90;;;;;;6123598;23;19921;-81
2022/10/02 14:54:40;;;;;;;;;;;24.90;51.40;;;;;;6123220;23;19925;-81
2022/10/02 14:57:26;;;;;;;;;;;25.00;50.90;;;;;;6123594;23;19936;-81
2022/10/02 15:00:00;;;;;;;;;;;25.10;50.50;;;;;;6124021;23;19928;-80
2022/10/02 15:02:56;;;;;;;;;;;25.00;51.30;;;;;;6097840;23;19917;-81
2022/10/02 15:05:38;;;;;;;;;;;25.00;50.60;;;;;;6086033;23;19940;-81
2022/10/02 15:08:13;;;;;;;;;;;25.00;50.80;;;;;;6122083;23;19917;-81
2022/10/02 15:10:41;;;;;;;;;;;25.00;51.30;;;;;;6122411;23;19949;-81
2022/10/02 15:13:43;;;;;;;;;;;25.20;50.90;;;;;;6098427;23;19937;-81
2022/10/02 15:18:58;;;;;;;;;;;25.00;50.00;;;;;;6095777;23;19922;-81
2022/10/02 15:21:36;;;;;;;;;;;25.00;51.20;;;;;;6098502;23;20246;-81
2022/10/02 15:24:24;;;;;;;;;;;25.00;51.40;;;;;;6098381;23;19917;-81
2022/10/02 15:27:09;;;;;;;0.30;0.00;;;25.00;51.20;;;;;;6121960;23;19996;-81